Time;durP1;ratioP1;P1;durP2;ratioP2;P2;SDS_P1;SDS_P2;PMS_P1;PMS_P2;Temp;Humidity;BMP_temperature;BMP_pressure;BME280_temperature;BME280_humidity;BME280_pressure;Samples;Min_cycle;Max_cycle;Signal;HPM_P1;HPM_P2
2022/02/17 00:00:33;;;;;;;1.23;0.57;;;;;;;20.99;53.99;97259.75;5052019;28;20036;-62
2022/02/17 00:02:58;;;;;;;0.98;0.10;;;;;;;21.05;55.79;97253.22;5051935;28;20048;-64
2022/02/17 00:05:24;;;;;;;0.95;0.20;;;;;;;21.06;56.36;97243.13;5052117;28;20106;-63
2022/02/17 00:07:50;;;;;;;0.52;0.20;;;;;;;21.08;57.85;97236.28;5051770;28;20029;-64
2022/02/17 00:10:17;;;;;;;0.95;0.40;;;;;;;21.10;58.99;97228.63;5052123;28;20479;-64
2022/02/17 00:12:43;;;;;;;0.60;0.10;;;;;;;21.12;59.10;97223.69;5067469;28;20036;-63
2022/02/17 00:15:08;;;;;;;0.30;0.08;;;;;;;21.16;59.70;97223.97;5051979;28;20033;-64
2022/02/17 00:17:34;;;;;;;0.50;0.10;;;;;;;21.18;60.78;97222.63;5051931;28;20483;-64
2022/02/17 00:19:59;;;;;;;0.63;0.20;;;;;;;21.21;61.63;97224.78;5051793;28;20029;-64
2022/02/17 00:22:25;;;;;;;0.55;0.17;;;;;;;21.24;62.49;97207.88;5052030;28;20024;-65
2022/02/17 00:24:51;;;;;;;1.75;0.10;;;;;;;21.24;61.51;97202.41;5033852;28;20033;-64
2022/02/17 00:27:16;;;;;;;1.08;0.25;;;;;;;21.25;61.70;97195.84;5051859;28;20040;-64
2022/02/17 00:29:42;;;;;;;0.50;0.20;;;;;;;21.27;62.53;97196.41;5051535;28;20026;-63
2022/02/17 00:32:07;;;;;;;1.00;0.25;;;;;;;21.28;63.11;97184.38;5051905;28;20071;-64
2022/02/17 00:34:33;;;;;;;1.05;0.35;;;;;;;21.29;62.71;97177.81;5051824;28;20376;-64
2022/02/17 00:36:59;;;;;;;0.40;0.30;;;;;;;21.30;62.92;97176.72;5051562;28;20083;-64
2022/02/17 00:39:24;;;;;;;0.85;0.22;;;;;;;21.32;62.85;97171.78;5064726;28;20062;-63
2022/02/17 00:41:50;;;;;;;0.00;0.00;;;;;;;21.36;63.09;97165.78;5071425;28;20029;-65
2022/02/17 00:44:16;;;;;;;0.30;0.10;;;;;;;21.38;62.86;97160.84;5053902;28;20390;-64
2022/02/17 00:46:41;;;;;;;0.35;0.10;;;;;;;21.42;63.37;97159.19;5071643;28;20035;-64
2022/02/17 00:49:06;;;;;;;0.52;0.20;;;;;;;21.44;62.11;97159.72;5072144;28;20035;-65
2022/02/17 00:51:33;;;;;;;0.25;0.10;;;;;;;21.45;61.81;97158.63;5053737;28;20478;-63
2022/02/17 00:53:59;;;;;;;1.92;0.20;;;;;;;21.49;62.06;97148.78;5071291;28;20043;-64
2022/02/17 00:56:24;;;;;;;0.52;0.20;;;;;;;21.51;61.87;97141.13;5066962;28;20025;-64
2022/02/17 00:58:49;;;;;;;1.63;0.28;;;;;;;21.53;61.45;97144.41;5050599;28;20057;-64
2022/02/17 01:01:15;;;;;;;1.05;0.30;;;;;;;21.55;61.27;97142.19;5055145;28;20029;-64
2022/02/17 01:03:40;;;;;;;0.93;0.22;;;;;;;21.57;61.93;97148.19;5055098;28;20460;-64
2022/02/17 01:06:05;;;;;;;0.63;0.20;;;;;;;21.58;60.92;97147.09;5055084;28;20028;-64
2022/02/17 01:08:31;;;;;;;0.30;0.10;;;;;;;21.59;60.71;97154.19;5066434;28;20029;-64
2022/02/17 01:10:56;;;;;;;0.40;0.10;;;;;;;21.60;60.99;97147.63;5074759;28;20353;-64
2022/02/17 01:13:23;;;;;;;1.85;0.30;;;;;;;21.61;61.00;97146.53;5075049;28;20028;-64
2022/02/17 01:15:48;;;;;;;0.63;0.22;;;;;;;21.63;60.54;97142.41;5074689;28;20025;-65
2022/02/17 01:18:14;;;;;;;0.22;0.10;;;;;;;21.65;59.92;97131.19;5074981;28;20055;-64
2022/02/17 01:20:40;;;;;;;0.17;0.10;;;;;;;21.63;60.15;97127.94;5074742;28;20024;-64
2022/02/17 01:23:06;;;;;;;1.55;0.45;;;;;;;21.66;59.92;97126.56;5074758;28;20024;-64
2022/02/17 01:25:31;;;;;;;0.30;0.10;;;;;;;21.68;59.38;97118.91;5074726;28;20073;-65
2022/02/17 01:27:57;;;;;;;1.88;0.30;;;;;;;21.66;59.24;97116.44;5056923;28;20020;-64
2022/02/17 01:30:23;;;;;;;1.25;0.20;;;;;;;21.69;59.39;97126.03;5074662;28;20025;-64
2022/02/17 01:32:48;;;;;;;2.10;0.35;;;;;;;21.71;59.12;97124.63;5056498;28;20020;-63
2022/02/17 01:35:13;;;;;;;1.05;0.17;;;;;;;21.69;59.08;97121.38;5056562;28;20028;-64
2022/02/17 01:37:39;;;;;;;3.10;0.32;;;;;;;21.68;58.80;97114.25;5070098;28;20048;-65
2022/02/17 01:40:05;;;;;;;0.98;0.17;;;;;;;21.72;58.70;97107.13;5036502;28;20066;-65
2022/02/17 01:42:30;;;;;;;0.32;0.22;;;;;;;21.71;58.75;97091.00;5036639;28;20021;-64
2022/02/17 01:44:55;;;;;;;1.02;0.20;;;;;;;21.70;58.40;97082.00;5054204;28;20457;-64
2022/02/17 01:47:20;;;;;;;0.20;0.20;;;;;;;21.70;58.25;97071.06;5054752;28;20071;-64
2022/02/17 01:49:47;;;;;;;0.95;0.25;;;;;;;21.71;58.78;97064.50;5036043;28;20383;-64
2022/02/17 01:52:14;;;;;;;0.70;0.10;;;;;;;21.73;57.95;97056.00;5054606;28;20111;-64
2022/02/17 01:54:41;;;;;;;1.30;0.20;;;;;;;21.73;58.18;97051.38;5054009;28;20048;-64
2022/02/17 01:57:14;;;;;;;0.55;0.10;;;;;;;21.73;58.51;97040.44;5036197;28;20025;-65
2022/02/17 01:59:41;;;;;;;0.47;0.10;;;;;;;21.73;57.52;97032.22;5054103;28;20020;-63
2022/02/17 02:02:08;;;;;;;1.75;0.30;;;;;;;21.75;57.47;97019.09;5054311;28;20025;-64
2022/02/17 02:04:33;;;;;;;1.95;0.50;;;;;;;21.75;58.26;97010.91;5053917;28;20048;-63
2022/02/17 02:06:59;;;;;;;1.40;0.03;;;;;;;21.76;57.80;97003.50;5054382;28;20404;-64
2022/02/17 02:09:24;;;;;;;0.85;0.20;;;;;;;21.74;57.21;96987.41;5068583;28;20035;-65
2022/02/17 02:11:50;;;;;;;0.15;0.15;;;;;;;21.76;57.33;96982.47;5052485;28;20044;-64
2022/02/17 02:14:16;;;;;;;0.15;0.10;;;;;;;21.76;57.57;96985.19;5053874;28;20108;-64
2022/02/17 02:16:43;;;;;;;1.08;0.10;;;;;;;21.76;57.39;96979.72;5053669;28;20029;-65
2022/02/17 02:19:08;;;;;;;0.32;0.10;;;;;;;21.76;57.49;96976.16;5053701;28;20021;-64
2022/02/17 02:21:34;;;;;;;1.75;0.20;;;;;;;21.77;57.57;96975.88;5053653;28;20385;-64
2022/02/17 02:24:00;;;;;;;0.80;0.10;;;;;;;21.78;56.86;96968.50;5053311;28;20063;-63
2022/02/17 02:26:27;;;;;;;0.75;0.10;;;;;;;21.76;57.42;96965.25;5053695;28;20107;-64
2022/02/17 02:28:54;;;;;;;0.80;0.20;;;;;;;21.76;56.98;96952.38;5053305;28;20027;-64
2022/02/17 02:31:19;;;;;;;0.55;0.20;;;;;;;21.77;56.88;96950.47;5052193;28;20017;-64
2022/02/17 02:33:45;;;;;;;0.75;0.17;;;;;;;21.77;57.76;96953.19;5050826;28;20090;-63
2022/02/17 02:36:10;;;;;;;0.32;0.10;;;;;;;21.76;57.54;96946.91;5053491;28;20085;-64
2022/02/17 02:38:35;;;;;;;1.00;0.30;;;;;;;21.77;57.34;96942.28;5054372;28;20035;-64
2022/02/17 02:41:01;;;;;;;0.00;0.00;;;;;;;21.76;57.19;96946.09;5053259;28;20016;-64
2022/02/17 02:43:26;;;;;;;0.40;0.00;;;;;;;21.75;56.97;96942.56;5053407;28;20025;-64
2022/02/17 02:45:51;;;;;;;0.75;0.10;;;;;;;21.76;56.29;96935.19;5052979;28;20040;-64
2022/02/17 02:48:17;;;;;;;1.27;0.20;;;;;;;21.76;56.33;96924.25;5035339;28;20029;-64
2022/02/17 02:50:43;;;;;;;0.60;0.20;;;;;;;21.77;56.57;96925.88;5052887;28;20052;-65
2022/02/17 02:53:14;;;;;;;0.43;0.10;;;;;;;21.78;57.07;96931.03;5052938;28;20037;-64
2022/02/17 02:55:40;;;;;;;1.02;0.22;;;;;;;21.77;56.51;96932.16;5052918;28;20025;-64
2022/02/17 02:58:05;;;;;;;0.40;0.20;;;;;;;21.76;56.74;96924.25;5052933;28;20039;-63
2022/02/17 03:00:30;;;;;;;0.57;0.10;;;;;;;21.78;56.46;96927.50;5035103;28;20025;-64
2022/02/17 03:02:55;;;;;;;0.88;0.10;;;;;;;21.77;56.94;96914.94;5047331;28;20036;-63
2022/02/17 03:05:21;;;;;;;0.55;0.10;;;;;;;21.78;56.91;96922.84;5055574;28;20472;-63
2022/02/17 03:07:47;;;;;;;0.95;0.30;;;;;;;21.76;56.37;96919.59;5046371;28;20025;-63
2022/02/17 03:10:12;;;;;;;1.52;0.45;;;;;;;21.78;56.40;96916.56;5072773;28;20025;-64
2022/02/17 03:12:38;;;;;;;0.40;0.10;;;;;;;21.76;56.35;96916.84;5054696;28;20489;-63
2022/02/17 03:15:04;;;;;;;0.43;0.20;;;;;;;21.77;56.68;96907.56;5037899;28;20029;-65
2022/02/17 03:17:30;;;;;;;0.10;0.10;;;;;;;21.78;56.20;96908.38;5032866;28;20040;-64
2022/02/17 03:19:55;;;;;;;0.43;0.17;;;;;;;21.77;56.28;96902.09;5032819;28;20464;-64
2022/02/17 03:22:20;;;;;;;2.47;0.20;;;;;;;21.78;56.26;96894.69;5032480;28;20026;-64
2022/02/17 03:24:46;;;;;;;1.27;0.40;;;;;;;21.76;56.31;96885.97;5032483;28;20036;-62
2022/02/17 03:27:11;;;;;;;0.20;0.00;;;;;;;21.76;56.37;96884.06;5015019;28;20032;-64
2022/02/17 03:29:37;;;;;;;2.95;0.38;;;;;;;21.79;56.68;96866.25;5032488;28;20068;-64
2022/02/17 03:32:02;;;;;;;0.77;0.28;;;;;;;21.76;55.81;96859.47;5043451;28;20136;-64
2022/02/17 03:34:28;;;;;;;0.80;0.10;;;;;;;21.78;56.16;96851.78;5072476;28;20073;-64
2022/02/17 03:36:53;;;;;;;0.40;0.10;;;;;;;21.77;56.63;96847.41;5072257;28;20107;-64
2022/02/17 03:39:19;;;;;;;1.33;0.22;;;;;;;21.78;56.59;96845.50;5072657;28;20048;-64
2022/02/17 03:41:46;;;;;;;0.63;0.20;;;;;;;21.77;56.70;96844.69;5072151;28;20464;-64
2022/02/17 03:44:11;;;;;;;0.32;0.10;;;;;;;21.75;56.41;96835.97;5072443;28;20031;-64
2022/02/17 03:46:36;;;;;;;0.40;0.10;;;;;;;21.76;56.49;96832.13;5072309;28;20028;-63
2022/02/17 03:49:02;;;;;;;1.75;0.20;;;;;;;21.77;56.30;96830.22;5072107;28;20033;-65
2022/02/17 03:51:27;;;;;;;0.93;0.22;;;;;;;21.77;56.41;96825.56;5072670;28;20032;-63
2022/02/17 03:53:53;;;;;;;0.60;0.20;;;;;;;21.75;56.02;96825.03;5071644;28;20048;-64
2022/02/17 03:56:18;;;;;;;1.25;0.15;;;;;;;21.76;56.44;96823.94;5072280;28;20093;-65
2022/02/17 03:59:01;;;;;;;3.97;0.50;;;;;;;21.75;56.51;96814.09;5072019;28;20029;-63
2022/02/17 04:01:28;;;;;;;0.32;0.13;;;;;;;21.76;56.80;96809.44;5069198;28;20027;-64
2022/02/17 04:03:53;;;;;;;0.30;0.00;;;;;;;21.76;56.35;96804.78;5040651;28;20482;-63
2022/02/17 04:06:18;;;;;;;0.35;0.10;;;;;;;21.77;56.40;96797.41;5072197;28;20033;-64
2022/02/17 04:08:44;;;;;;;0.52;0.20;;;;;;;21.75;55.72;96797.69;5053903;28;20028;-64
2022/02/17 04:11:09;;;;;;;1.15;0.20;;;;;;;21.75;56.43;96785.97;5072088;28;20086;-64
2022/02/17 04:13:35;;;;;;;1.15;0.30;;;;;;;21.74;55.84;96768.75;5054066;28;20028;-64
2022/02/17 04:16:00;;;;;;;0.98;0.30;;;;;;;21.76;56.04;96772.00;5072218;28;20329;-64
2022/02/17 04:18:26;;;;;;;0.85;0.10;;;;;;;21.75;56.20;96775.03;5072130;28;20112;-64
2022/02/17 04:20:51;;;;;;;1.05;0.10;;;;;;;21.75;56.06;96775.84;5071827;28;20115;-65
2022/02/17 04:23:16;;;;;;;0.63;0.20;;;;;;;21.76;56.36;96776.66;5072276;28;20067;-64
2022/02/17 04:25:41;;;;;;;0.45;0.10;;;;;;;21.76;56.06;96772.00;5071806;28;20074;-64
2022/02/17 04:28:07;;;;;;;0.20;0.10;;;;;;;21.75;56.03;96759.44;5071918;28;20043;-64
2022/02/17 04:30:32;;;;;;;2.15;0.35;;;;;;;21.74;56.03;96760.53;5053834;28;20021;-63
2022/02/17 04:33:01;;;;;;;0.93;0.20;;;;;;;21.75;56.01;96743.03;5056302;28;20047;-63
2022/02/17 04:35:26;;;;;;;0.73;0.17;;;;;;;21.75;55.81;96743.03;5055115;28;20029;-63
2022/02/17 04:37:52;;;;;;;0.10;0.00;;;;;;;21.75;56.04;96745.78;5055448;28;20108;-64
2022/02/17 04:40:17;;;;;;;0.20;0.10;;;;;;;21.73;55.89;96745.25;5055731;28;20056;-63
2022/02/17 04:42:42;;;;;;;0.73;0.40;;;;;;;21.76;55.83;96743.84;5055378;28;20025;-64
2022/02/17 04:45:08;;;;;;;0.65;0.20;;;;;;;21.75;55.86;96743.03;5055575;28;20456;-64
2022/02/17 04:47:34;;;;;;;1.20;0.30;;;;;;;21.75;55.98;96737.56;5037484;28;20025;-63
2022/02/17 04:49:59;;;;;;;0.75;0.10;;;;;;;21.76;55.95;96738.38;5055211;28;20053;-64
2022/02/17 04:52:25;;;;;;;0.75;0.20;;;;;;;21.74;55.99;96730.47;5037838;28;20476;-63
2022/02/17 04:54:50;;;;;;;0.85;0.13;;;;;;;21.73;55.84;96725.31;5054990;28;20048;-63
2022/02/17 04:57:16;;;;;;;1.17;0.20;;;;;;;21.74;55.81;96730.47;5055015;28;20526;-64
2022/02/17 04:59:41;;;;;;;1.00;0.25;;;;;;;21.74;55.81;96730.47;5055126;28;20032;-62
2022/02/17 05:02:08;;;;;;;0.45;0.20;;;;;;;22.71;53.10;96737.38;5065878;28;20052;-64
2022/02/17 05:04:33;;;;;;;1.10;0.10;;;;;;;23.14;52.33;96726.28;5075133;28;20439;-63
2022/02/17 05:06:58;;;;;;;0.82;0.20;;;;;;;23.35;52.68;96724.81;5074986;28;20028;-63
2022/02/17 05:09:24;;;;;;;0.45;0.10;;;;;;;23.50;52.38;96716.28;5075082;28;20066;-64
2022/02/17 05:11:49;;;;;;;0.93;0.10;;;;;;;23.61;51.78;96722.41;5075093;28;20016;-64
2022/02/17 05:14:14;;;;;;;1.48;0.10;;;;;;;23.72;52.15;96729.34;5057083;28;20033;-64
2022/02/17 05:16:40;;;;;;;0.85;0.20;;;;;;;23.81;52.50;96726.69;5074925;28;20020;-65
2022/02/17 05:19:05;;;;;;;0.40;0.13;;;;;;;23.89;52.55;96739.69;5074815;28;20016;-63
2022/02/17 05:21:30;;;;;;;1.17;0.20;;;;;;;23.94;52.40;96732.16;5074946;28;20472;-64
2022/02/17 05:23:56;;;;;;;0.47;0.22;;;;;;;24.00;52.60;96727.38;5074586;28;20024;-63
2022/02/17 05:26:21;;;;;;;0.68;0.20;;;;;;;24.06;52.15;96734.41;5057163;28;20032;-63
2022/02/17 05:28:46;;;;;;;1.70;0.20;;;;;;;24.14;52.35;96736.41;5074564;28;20024;-64
2022/02/17 05:31:12;;;;;;;1.45;0.10;;;;;;;24.18;52.30;96733.84;5071696;28;20497;-64
2022/02/17 05:33:37;;;;;;;1.27;0.20;;;;;;;24.21;52.63;96736.81;5054621;28;20526;-63
2022/02/17 05:36:03;;;;;;;0.13;0.10;;;;;;;24.27;52.85;96734.75;5054415;28;20111;-64
2022/02/17 05:38:28;;;;;;;0.80;0.30;;;;;;;24.28;52.95;96737.19;5054699;28;20050;-64
2022/02/17 05:40:53;;;;;;;0.60;0.17;;;;;;;24.34;52.35;96740.66;5054262;28;20384;-64
2022/02/17 05:43:19;;;;;;;1.42;0.30;;;;;;;24.36;52.67;96749.41;5054491;28;20443;-64
2022/02/17 05:45:44;;;;;;;0.85;0.17;;;;;;;24.41;52.95;96748.47;5053854;28;20048;-63
2022/02/17 05:48:10;;;;;;;0.63;0.20;;;;;;;24.43;53.16;96743.50;5054443;28;20380;-63
2022/02/17 05:50:35;;;;;;;0.50;0.15;;;;;;;24.47;52.70;96755.47;5036339;28;20063;-63
2022/02/17 05:53:01;;;;;;;0.88;0.20;;;;;;;24.47;53.15;96749.97;5054105;28;20032;-63
2022/02/17 05:55:27;;;;;;;0.40;0.10;;;;;;;24.50;53.19;96747.44;5054233;28;20049;-65
2022/02/17 05:57:52;;;;;;;0.28;0.08;;;;;;;24.53;52.86;96746.84;5053868;28;20491;-63
2022/02/17 06:00:19;;;;;;;0.55;0.15;;;;;;;24.53;53.22;96741.34;5036348;28;20020;-64
2022/02/17 06:02:45;;;;;;;0.68;0.20;;;;;;;24.57;52.91;96741.53;5068802;28;20107;-63
2022/02/17 06:05:11;;;;;;;0.57;0.13;;;;;;;24.58;53.61;96740.41;5056067;28;20155;-64
2022/02/17 06:07:37;;;;;;;0.95;0.20;;;;;;;24.62;53.59;96737.84;5073856;28;20024;-64
2022/02/17 06:10:04;;;;;;;0.82;0.20;;;;;;;24.62;53.63;96730.41;5073801;28;20035;-63
2022/02/17 06:12:29;;;;;;;0.30;0.10;;;;;;;24.64;53.29;96719.94;5073978;28;20016;-64
2022/02/17 06:14:55;;;;;;;0.50;0.10;;;;;;;24.65;52.80;96720.75;5073659;28;20020;-62
2022/02/17 06:17:20;;;;;;;0.60;0.10;;;;;;;24.66;53.49;96717.69;5073866;28;20095;-63
2022/02/17 06:19:45;;;;;;;0.57;0.17;;;;;;;24.68;52.79;96718.19;5073413;28;20028;-64
2022/02/17 06:22:11;;;;;;;0.10;0.10;;;;;;;24.68;53.20;96718.19;5073802;28;20048;-63
2022/02/17 06:24:36;;;;;;;2.60;0.30;;;;;;;24.74;52.98;96721.63;5051894;28;20491;-63
2022/02/17 06:27:01;;;;;;;0.50;0.10;;;;;;;24.75;53.00;96718.56;5053616;28;20025;-64
2022/02/17 06:29:26;;;;;;;1.15;0.20;;;;;;;24.74;53.06;96722.44;5052298;28;20115;-63
2022/02/17 06:31:55;;;;;;;0.55;0.10;;;;;;;24.75;52.66;96726.00;5054684;28;20471;-63
2022/02/17 06:34:21;;;;;;;0.50;0.13;;;;;;;24.80;52.87;96725.88;5073547;28;20039;-64
2022/02/17 06:36:48;;;;;;;0.35;0.10;;;;;;;24.81;53.04;96722.00;5055249;28;20379;-63
2022/02/17 06:39:14;;;;;;;1.15;0.57;;;;;;;24.82;52.80;96724.44;5073381;28;20029;-63
2022/02/17 06:41:39;;;;;;;0.63;0.30;;;;;;;24.84;53.21;96732.34;5073204;28;20513;-63
2022/02/17 06:44:05;;;;;;;0.25;0.10;;;;;;;24.84;52.67;96733.16;5073161;28;20055;-63
2022/02/17 06:46:30;;;;;;;0.25;0.05;;;;;;;24.86;53.24;96736.44;5073346;28;20031;-64
2022/02/17 06:48:56;;;;;;;0.73;0.20;;;;;;;24.85;52.87;96737.53;5072937;28;20475;-62
2022/02/17 06:51:21;;;;;;;0.60;0.10;;;;;;;24.87;52.41;96732.56;5073151;28;20040;-63
2022/02/17 06:53:46;;;;;;;0.52;0.10;;;;;;;24.88;52.59;96734.19;5072612;28;20503;-64
2022/02/17 06:56:12;;;;;;;0.20;0.10;;;;;;;24.92;52.69;96739.06;5072823;28;20048;-64
2022/02/17 06:58:37;;;;;;;1.13;0.20;;;;;;;24.90;52.44;96737.44;5072571;28;20020;-63
2022/02/17 07:01:02;;;;;;;0.47;0.20;;;;;;;24.93;52.59;96737.94;5071870;28;20040;-65
2022/02/17 07:03:28;;;;;;;0.55;0.20;;;;;;;24.94;52.22;96737.63;5053014;28;20029;-63
2022/02/17 07:05:53;;;;;;;0.65;0.10;;;;;;;24.95;51.92;96743.91;5053207;28;20028;-64
2022/02/17 07:08:18;;;;;;;1.15;0.10;;;;;;;24.94;52.53;96736.81;5052978;28;20582;-64
2022/02/17 07:10:56;;;;;;;0.90;0.35;;;;;;;24.97;52.51;96741.66;5034662;28;20029;-63
2022/02/17 07:13:25;;;;;;;0.52;0.28;;;;;;;24.99;53.16;96744.91;5052842;28;20031;-63
2022/02/17 07:15:51;;;;;;;0.90;0.30;;;;;;;25.01;52.70;96748.19;5052453;28;20052;-64
2022/02/17 07:18:19;;;;;;;2.08;0.55;;;;;;;24.99;52.82;96764.94;5052813;28;20035;-64
2022/02/17 07:20:46;;;;;;;1.02;0.20;;;;;;;25.00;52.23;96763.03;5048120;28;20048;-63
2022/02/17 07:23:14;;;;;;;0.60;0.20;;;;;;;25.00;52.49;96768.53;5033791;28;20469;-64
2022/02/17 07:25:40;;;;;;;0.40;0.10;;;;;;;25.01;52.34;96762.72;5014865;28;20018;-63
2022/02/17 07:28:05;;;;;;;1.02;0.22;;;;;;;25.04;52.25;96758.56;5014848;28;20420;-64
2022/02/17 07:30:31;;;;;;;1.80;0.40;;;;;;;25.04;52.23;96769.56;5052059;28;20079;-64
2022/02/17 07:32:56;;;;;;;0.55;0.20;;;;;;;25.06;52.38;96775.56;5070702;28;20016;-63
2022/02/17 07:35:21;;;;;;;1.40;0.20;;;;;;;25.06;52.46;96778.28;5070861;28;20042;-64
2022/02/17 07:37:47;;;;;;;1.20;0.30;;;;;;;25.08;52.65;96787.03;5046040;28;20032;-63
2022/02/17 07:40:15;;;;;;;0.88;0.10;;;;;;;25.08;52.67;96787.84;5051823;28;20056;-64
2022/02/17 07:42:42;;;;;;;0.38;0.13;;;;;;;25.08;52.70;96787.84;5031148;28;20047;-64
2022/02/17 07:45:09;;;;;;;0.70;0.10;;;;;;;25.09;52.26;96800.47;5041605;28;20017;-66
2022/02/17 07:47:35;;;;;;;0.68;0.10;;;;;;;25.11;52.95;96802.88;5048868;28;20032;-66
2022/02/17 07:50:01;;;;;;;0.70;0.20;;;;;;;25.11;52.83;96802.88;5050547;28;20028;-66
2022/02/17 07:52:27;;;;;;;1.85;0.20;;;;;;;25.13;52.71;96806.13;5050869;28;20040;-67
2022/02/17 07:54:52;;;;;;;0.40;0.20;;;;;;;25.09;52.29;96808.69;5029312;28;20092;-68
2022/02/17 07:57:18;;;;;;;0.98;0.20;;;;;;;25.14;53.17;96818.75;5030933;28;20144;-67
2022/02/17 07:59:44;;;;;;;0.75;0.20;;;;;;;25.12;52.63;96815.50;5030844;28;20049;-64
2022/02/17 08:02:09;;;;;;;0.60;0.17;;;;;;;25.13;52.80;96819.88;5032719;28;20029;-64
2022/02/17 08:04:37;;;;;;;1.67;0.30;;;;;;;25.15;52.34;96821.19;5030689;28;20105;-64
2022/02/17 08:07:06;;;;;;;1.90;0.20;;;;;;;25.15;52.52;96826.69;5030622;28;20486;-65
2022/02/17 08:09:32;;;;;;;0.52;0.10;;;;;;;25.15;52.74;96832.16;5034135;28;20033;-67
2022/02/17 08:11:57;;;;;;;2.35;0.45;;;;;;;25.17;52.66;96840.09;5039187;28;20030;-65
2022/02/17 08:14:22;;;;;;;1.08;0.25;;;;;;;25.18;52.99;96836.22;5034871;28;20025;-64
2022/02/17 08:16:48;;;;;;;0.80;0.20;;;;;;;25.17;53.12;96840.09;5034563;28;20434;-64
2022/02/17 08:19:13;;;;;;;2.97;0.30;;;;;;;25.19;52.94;96854.34;5036882;28;20021;-65
2022/02/17 08:21:39;;;;;;;1.20;0.30;;;;;;;25.19;52.58;96843.34;5032621;28;20031;-65
2022/02/17 08:24:05;;;;;;;1.02;0.25;;;;;;;25.22;53.30;96844.69;5026397;28;20029;-65
2022/02/17 08:26:30;;;;;;;0.88;0.13;;;;;;;25.22;52.89;96842.75;5036553;28;20103;-65
2022/02/17 08:28:58;;;;;;;1.23;0.28;;;;;;;25.20;52.65;96847.75;5035779;28;20587;-64
2022/02/17 08:31:27;;;;;;;1.15;0.45;;;;;;;25.22;52.65;96845.50;5035812;28;20025;-64
2022/02/17 08:33:53;;;;;;;1.10;0.30;;;;;;;25.22;52.48;96851.00;5035631;28;20088;-65
2022/02/17 08:36:19;;;;;;;1.20;0.20;;;;;;;25.21;52.58;96852.13;5035884;28;20434;-64
2022/02/17 08:38:44;;;;;;;1.70;0.35;;;;;;;25.24;52.25;96851.50;5035599;28;20522;-65
2022/02/17 08:41:10;;;;;;;0.38;0.20;;;;;;;25.24;52.50;96846.00;5035706;28;20017;-65
2022/02/17 08:43:35;;;;;;;0.68;0.10;;;;;;;25.23;52.82;96849.88;5035576;28;20027;-64
2022/02/17 08:46:02;;;;;;;1.52;0.13;;;;;;;25.25;52.81;96858.59;5035579;28;20033;-66
2022/02/17 08:48:27;;;;;;;1.25;0.32;;;;;;;25.25;52.12;96858.59;5035662;28;20029;-65
2022/02/17 08:50:53;;;;;;;1.08;0.25;;;;;;;25.29;52.50;96859.59;5035324;28;20079;-65
2022/02/17 08:53:19;;;;;;;0.82;0.20;;;;;;;25.29;52.00;96870.59;5034252;28;20108;-64
2022/02/17 08:55:44;;;;;;;2.20;0.10;;;;;;;25.30;52.88;96874.16;5054915;28;20499;-64
2022/02/17 08:58:09;;;;;;;1.60;0.30;;;;;;;25.26;52.34;96876.72;5057648;28;20032;-66
2022/02/17 09:00:36;;;;;;;2.92;0.28;;;;;;;25.28;52.37;96879.97;5055266;28;20105;-64
2022/02/17 09:03:01;;;;;;;1.65;0.20;;;;;;;25.30;52.48;96894.19;5055170;28;20117;-65
2022/02/17 09:05:27;;;;;;;1.05;0.20;;;;;;;25.30;52.26;96877.72;5055358;28;20100;-64
2022/02/17 09:07:54;;;;;;;1.05;0.20;;;;;;;25.32;53.07;96891.13;5054965;28;20028;-64
2022/02/17 09:10:19;;;;;;;3.03;0.40;;;;;;;25.32;52.91;96894.69;5055442;28;20032;-65
2022/02/17 09:12:45;;;;;;;1.50;0.30;;;;;;;25.31;52.54;96895.00;5054874;28;20025;-64
2022/02/17 09:15:10;;;;;;;1.38;0.30;;;;;;;25.33;52.00;96906.50;5055092;28;20025;-64
2022/02/17 09:17:36;;;;;;;1.48;0.40;;;;;;;25.31;52.24;96895.81;5053692;28;20025;-64
2022/02/17 09:20:05;;;;;;;0.28;0.10;;;;;;;25.35;53.15;96901.50;5054186;28;20082;-64
2022/02/17 09:22:30;;;;;;;0.85;0.38;;;;;;;25.33;52.23;96899.06;5054971;28;20029;-65
2022/02/17 09:24:55;;;;;;;0.98;0.20;;;;;;;25.34;52.33;96903.44;5054573;28;20036;-64
2022/02/17 09:27:20;;;;;;;2.22;0.35;;;;;;;25.34;52.51;96906.19;5054838;28;20024;-65
2022/02/17 09:29:46;;;;;;;0.57;0.20;;;;;;;25.35;52.37;96901.50;5070983;28;20032;-64
2022/02/17 09:32:11;;;;;;;0.40;0.28;;;;;;;25.34;52.43;96911.69;5065388;28;20036;-64
2022/02/17 09:34:40;;;;;;;1.92;0.50;;;;;;;25.35;52.67;96910.56;5054540;28;20024;-65
2022/02/17 09:37:06;;;;;;;0.80;0.20;;;;;;;25.36;52.59;96925.97;5054535;28;20457;-64
2022/02/17 09:39:33;;;;;;;0.50;0.20;;;;;;;25.36;52.31;96923.22;5054637;28;20159;-65
2022/02/17 09:42:00;;;;;;;0.45;0.10;;;;;;;25.35;52.73;96918.81;5052939;28;20392;-65
2022/02/17 09:44:26;;;;;;;0.65;0.22;;;;;;;25.38;52.70;96934.72;5049873;28;20060;-65
2022/02/17 09:46:52;;;;;;;1.20;0.38;;;;;;;25.38;52.51;96934.72;5053508;28;20512;-65
2022/02/17 09:49:19;;;;;;;0.98;0.20;;;;;;;25.36;52.49;96936.97;5041284;28;20033;-64
2022/02/17 09:51:47;;;;;;;1.92;0.45;;;;;;;25.37;52.33;96949.56;5054966;28;20033;-65
2022/02/17 09:54:12;;;;;;;1.02;0.30;;;;;;;25.38;52.27;96945.69;5054113;28;20055;-64
2022/02/17 09:56:38;;;;;;;0.55;0.17;;;;;;;25.38;52.70;96955.88;5053917;28;20029;-64
2022/02/17 09:59:04;;;;;;;2.28;0.30;;;;;;;25.40;52.33;96954.44;5054107;28;20603;-65
2022/02/17 10:01:30;;;;;;;1.33;0.30;;;;;;;25.38;52.54;96961.38;5049203;28;20028;-65
2022/02/17 10:04:16;;;;;;;0.85;0.20;;;;;;;25.39;52.87;96966.56;5068412;28;20112;-65
2022/02/17 10:06:49;;;;;;;1.73;0.50;;;;;;;25.41;52.24;96975.31;5042272;28;20017;-64
2022/02/17 10:09:15;;;;;;;1.33;0.10;;;;;;;25.43;52.49;96984.06;5055925;28;20064;-64
2022/02/17 10:11:43;;;;;;;1.38;0.20;;;;;;;25.41;52.05;96977.25;5052835;28;20028;-64
2022/02/17 10:14:16;;;;;;;1.05;0.50;;;;;;;25.40;52.33;96992.94;5019451;28;20099;-64
2022/02/17 10:17:04;;;;;;;1.60;0.52;;;;;;;25.44;51.90;96993.94;5051470;28;20074;-65
2022/02/17 10:19:39;;;;;;;0.80;0.50;;;;;;;25.46;52.12;96996.38;5035707;28;20025;-64
2022/02/17 10:22:04;;;;;;;0.77;0.47;;;;;;;25.44;52.22;96999.44;5071100;28;20028;-65
2022/02/17 10:24:44;;;;;;;1.67;0.10;;;;;;;25.47;52.31;97007.06;5066720;28;20108;-64
2022/02/17 10:27:27;;;;;;;0.90;0.32;;;;;;;25.46;52.44;97027.41;5048536;28;20480;-65
2022/02/17 10:30:09;;;;;;;1.40;0.38;;;;;;;25.44;52.27;97035.16;5033034;28;20045;-64
2022/02/17 10:32:37;;;;;;;3.42;0.55;;;;;;;25.44;52.52;97048.91;5032508;28;20026;-64
2022/02/17 10:35:14;;;;;;;2.15;0.40;;;;;;;25.46;52.87;97056.84;5033268;28;20037;-64
2022/02/17 10:37:50;;;;;;;0.55;0.20;;;;;;;25.48;52.60;97055.41;5033288;28;20074;-65
2022/02/17 10:40:32;;;;;;;0.65;0.20;;;;;;;25.47;53.12;97048.28;5034405;28;20027;-64
2022/02/17 10:43:08;;;;;;;0.50;0.10;;;;;;;25.44;52.33;97051.66;5041503;28;20530;-64
2022/02/17 10:45:34;;;;;;;1.58;0.43;;;;;;;25.47;51.85;97048.28;5046535;28;20481;-63
2022/02/17 10:48:15;;;;;;;0.55;0.20;;;;;;;25.49;52.54;97068.03;5062565;28;20032;-65
2022/02/17 10:50:42;;;;;;;0.40;0.20;;;;;;;25.50;52.65;97066.91;5063817;28;20472;-64
2022/02/17 10:53:19;;;;;;;2.42;0.30;;;;;;;25.47;52.91;97081.28;5052860;28;20101;-65
2022/02/17 10:55:55;;;;;;;1.63;0.17;;;;;;;25.51;52.37;97081.47;5037488;28;20457;-64
2022/02/17 10:58:27;;;;;;;1.05;0.40;;;;;;;25.51;52.53;97081.47;5055321;28;20029;-64
2022/02/17 11:00:54;;;;;;;1.42;0.30;;;;;;;25.52;52.42;97087.78;5069610;28;20035;-64
2022/02/17 11:03:19;;;;;;;0.80;0.20;;;;;;;25.50;52.83;97091.66;5053958;28;20541;-64
2022/02/17 11:05:46;;;;;;;0.85;0.30;;;;;;;25.51;52.72;97092.47;5063345;28;20024;-65
2022/02/17 11:08:13;;;;;;;2.00;0.30;;;;;;;25.53;52.13;97105.91;5052872;28;20033;-64
2022/02/17 11:10:39;;;;;;;1.63;0.50;;;;;;;25.50;52.37;97110.91;5052642;28;20024;-64
2022/02/17 11:13:07;;;;;;;0.80;0.28;;;;;;;25.52;52.05;97118.03;5052488;28;20476;-65
2022/02/17 11:15:40;;;;;;;1.92;0.50;;;;;;;25.55;52.58;97126.50;5052530;28;20435;-64
2022/02/17 11:18:06;;;;;;;0.43;0.20;;;;;;;25.52;52.35;97131.78;5052547;28;20263;-65
2022/02/17 11:20:34;;;;;;;0.43;0.20;;;;;;;25.53;52.08;97128.75;5059736;28;20517;-64
2022/02/17 11:23:00;;;;;;;1.65;0.75;;;;;;;25.54;52.89;97146.06;5071824;28;20043;-64
2022/02/17 11:25:36;;;;;;;1.33;0.45;;;;;;;25.54;52.71;97162.56;5071879;28;20024;-64
2022/02/17 11:28:04;;;;;;;0.20;0.20;;;;;;;25.54;52.73;97162.56;5071290;28;20032;-64
2022/02/17 11:30:31;;;;;;;0.52;0.10;;;;;;;25.53;52.35;97177.41;5071955;28;20043;-64